createdAt,value
2023-02-11T00:01:35.748Z,23.87
2023-02-11T00:04:38.764Z,23.60
2023-02-11T00:07:41.481Z,24.10
2023-02-11T00:10:46.559Z,12.20
2023-02-11T00:13:49.557Z,22.58
2023-02-11T00:16:52.648Z,23.67
2023-02-11T00:19:55.361Z,23.00
2023-02-11T00:22:58.359Z,24.13
2023-02-11T00:26:01.040Z,23.90
2023-02-11T00:29:05.950Z,27.55
2023-02-11T00:32:09.223Z,22.87
2023-02-11T00:35:12.280Z,20.65
2023-02-11T00:38:15.212Z,22.42
2023-02-11T00:41:18.884Z,22.58
2023-02-11T00:44:21.723Z,21.17
2023-02-11T00:47:24.943Z,12.77
2023-02-11T00:50:27.581Z,18.92
2023-02-11T00:53:32.897Z,19.48
2023-02-11T00:56:36.160Z,18.63
2023-02-11T00:59:39.275Z,13.68
2023-02-11T01:02:42.040Z,18.40
2023-02-11T01:05:45.681Z,18.55
2023-02-11T01:08:48.619Z,19.50
2023-02-11T01:11:51.764Z,18.42
2023-02-11T01:14:54.448Z,18.23
2023-02-11T01:17:57.504Z,16.10
2023-02-11T01:21:00.189Z,15.88
2023-02-11T01:24:03.263Z,19.65
2023-02-11T01:27:06.007Z,16.77
2023-02-11T01:30:12.978Z,17.13
2023-02-11T01:33:15.831Z,15.15
2023-02-11T01:36:18.973Z,18.35
2023-02-11T01:39:21.789Z,17.77
2023-02-11T01:42:25.002Z,17.58
2023-02-11T01:45:48.923Z,16.40
2023-02-11T01:49:09.878Z,17.25
2023-02-11T01:52:20.399Z,18.33
2023-02-11T01:55:42.178Z,17.02
2023-02-11T01:58:47.703Z,15.90
2023-02-11T02:01:57.422Z,14.73
2023-02-11T02:05:17.217Z,12.60
2023-02-11T02:08:23.964Z,9.68
2023-02-11T02:11:27.082Z,14.90
2023-02-11T02:14:29.824Z,17.63
2023-02-11T02:17:47.057Z,15.50
2023-02-11T02:21:26.528Z,15.35
2023-02-11T02:24:47.487Z,15.13
2023-02-11T02:28:19.351Z,15.55
2023-02-11T02:31:31.928Z,17.55
2023-02-11T02:34:52.785Z,15.57
2023-02-11T02:38:20.090Z,15.13
2023-02-11T02:41:28.749Z,14.87
2023-02-11T02:44:32.709Z,14.73
2023-02-11T02:47:35.344Z,13.43
2023-02-11T02:50:38.604Z,13.18
2023-02-11T02:54:02.373Z,14.00
2023-02-11T02:57:45.214Z,10.75
2023-02-11T03:01:18.396Z,15.68
2023-02-11T03:04:30.417Z,14.48
2023-02-11T03:07:45.635Z,13.98
2023-02-11T03:10:52.438Z,13.80
2023-02-11T03:13:56.687Z,14.52
2023-02-11T03:17:03.028Z,12.98
2023-02-11T03:20:10.318Z,14.47
2023-02-11T03:23:24.054Z,12.45
2023-02-11T03:26:40.992Z,12.37
2023-02-11T03:29:55.151Z,13.52
2023-02-11T03:32:59.519Z,13.07
2023-02-11T03:36:15.429Z,10.45
2023-02-11T03:39:33.578Z,9.70
2023-02-11T03:42:42.725Z,13.13
2023-02-11T03:45:48.840Z,13.50
2023-02-11T03:48:58.273Z,14.60
2023-02-11T03:52:02.907Z,14.20
2023-02-11T03:55:18.598Z,13.90
2023-02-11T03:58:21.545Z,13.68
2023-02-11T04:01:24.740Z,14.38
2023-02-11T04:04:27.949Z,16.10
2023-02-11T04:07:31.015Z,14.13
2023-02-11T04:10:34.094Z,11.32
2023-02-11T04:13:36.772Z,14.80
2023-02-11T04:16:40.213Z,8.40
2023-02-11T04:19:42.948Z,12.00
2023-02-11T04:22:46.085Z,13.13
2023-02-11T04:25:52.681Z,10.43
2023-02-11T04:28:55.915Z,14.77
2023-02-11T04:31:58.674Z,13.75
2023-02-11T04:35:03.023Z,14.80
2023-02-11T04:38:05.847Z,16.33
2023-02-11T04:41:09.054Z,17.92
2023-02-11T04:44:11.923Z,16.35
2023-02-11T04:47:15.715Z,16.52
2023-02-11T04:50:18.537Z,15.98
2023-02-11T04:53:22.210Z,15.45
2023-02-11T04:56:25.017Z,13.77
2023-02-11T04:59:28.212Z,16.37
2023-02-11T05:02:30.922Z,14.93
2023-02-11T05:05:34.181Z,13.13
2023-02-11T05:08:36.988Z,15.30
2023-02-11T05:11:40.323Z,14.87
2023-02-11T05:14:43.033Z,17.35
2023-02-11T05:17:46.188Z,25.17
2023-02-11T05:20:49.064Z,21.02
2023-02-11T05:23:52.582Z,12.88
2023-02-11T05:26:55.315Z,22.73
2023-02-11T05:29:58.417Z,20.60
2023-02-11T05:33:01.237Z,23.12
2023-02-11T05:36:07.913Z,15.80
2023-02-11T05:39:10.611Z,15.43
2023-02-11T05:42:14.081Z,14.77
2023-02-11T05:45:16.842Z,13.77
2023-02-11T05:48:20.032Z,13.20
2023-02-11T05:51:25.393Z,15.98
2023-02-11T05:54:28.472Z,15.82
2023-02-11T05:57:31.179Z,16.80
2023-02-11T06:00:34.602Z,20.17
2023-02-11T06:03:38.019Z,20.10
2023-02-11T06:06:41.153Z,21.43
2023-02-11T06:09:44.443Z,18.37
2023-02-11T06:12:47.152Z,17.87
2023-02-11T06:15:58.672Z,14.27
2023-02-11T06:19:01.449Z,21.25
2023-02-11T06:22:04.594Z,18.83
2023-02-11T06:25:07.601Z,25.27
2023-02-11T06:28:10.945Z,22.23
2023-02-11T06:31:15.282Z,22.52
2023-02-11T06:34:18.367Z,28.23
2023-02-11T06:37:21.671Z,42.53
2023-02-11T06:40:24.816Z,33.78
2023-02-11T06:43:27.759Z,33.20
2023-02-11T06:46:31.027Z,30.60
2023-02-11T06:49:33.717Z,27.27
2023-02-11T06:52:36.891Z,25.85
2023-02-11T06:55:39.728Z,25.15
2023-02-11T06:58:42.947Z,21.37
2023-02-11T07:01:45.828Z,28.62
2023-02-11T07:04:49.003Z,23.23
2023-02-11T07:07:51.647Z,24.13
2023-02-11T07:10:54.672Z,25.80
2023-02-11T07:14:02.537Z,24.02
2023-02-11T07:17:06.147Z,31.00
2023-02-11T07:20:09.746Z,20.15
2023-02-11T07:23:12.897Z,21.55
2023-02-11T07:26:18.806Z,20.85
2023-02-11T07:29:21.989Z,27.50
2023-02-11T07:32:24.652Z,40.33
2023-02-11T07:35:27.749Z,26.77
2023-02-11T07:38:31.474Z,28.58
2023-02-11T07:41:37.843Z,29.63
2023-02-11T07:44:41.364Z,44.92
2023-02-11T07:47:44.672Z,30.70
2023-02-11T07:50:47.520Z,42.65
2023-02-11T07:53:52.163Z,36.90
2023-02-11T07:56:54.972Z,31.83
2023-02-11T07:59:58.011Z,34.50
2023-02-11T08:03:00.885Z,23.85
2023-02-11T08:06:14.960Z,28.57
2023-02-11T08:09:18.014Z,23.67
2023-02-11T08:12:21.071Z,22.95
2023-02-11T08:15:23.866Z,25.62
2023-02-11T08:18:26.819Z,22.55
2023-02-11T08:21:30.331Z,27.00
2023-02-11T08:24:33.327Z,38.30
2023-02-11T08:27:36.036Z,39.75
2023-02-11T08:30:39.023Z,30.33
2023-02-11T08:33:42.108Z,25.02
2023-02-11T08:36:46.654Z,21.77
2023-02-11T08:39:49.408Z,25.55
2023-02-11T08:42:52.644Z,20.55
2023-02-11T08:45:55.386Z,14.17
2023-02-11T08:48:58.817Z,18.33
2023-02-11T08:52:04.302Z,18.10
2023-02-11T08:55:07.561Z,21.00
2023-02-11T08:58:10.218Z,19.52
2023-02-11T09:02:50.488Z,19.15
2023-02-11T09:05:53.767Z,21.52
2023-02-11T09:08:58.786Z,21.55
2023-02-11T09:12:01.927Z,20.45
2023-02-11T09:15:05.073Z,22.77
2023-02-11T09:18:08.320Z,21.53
2023-02-11T09:21:11.039Z,20.92
2023-02-11T09:24:15.050Z,18.73
2023-02-11T09:27:17.788Z,21.30
2023-02-11T09:30:21.189Z,21.50
2023-02-11T09:33:24.016Z,19.20
2023-02-11T09:36:38.785Z,19.45
2023-02-11T09:39:41.523Z,20.90
2023-02-11T09:43:01.136Z,22.33
2023-02-11T09:46:05.918Z,24.07
2023-02-11T09:49:20.180Z,22.33
2023-02-11T09:52:53.851Z,20.85
2023-02-11T09:56:00.743Z,20.48
2023-02-11T09:59:04.856Z,20.35
2023-02-11T10:02:28.038Z,18.90
2023-02-11T10:06:06.117Z,20.23
2023-02-11T10:09:30.842Z,9.52
2023-02-11T10:12:55.659Z,22.05
2023-02-11T10:16:01.144Z,19.65
2023-02-11T10:19:22.405Z,20.30
2023-02-11T10:22:31.222Z,10.67
2023-02-11T10:25:38.644Z,17.20
2023-02-11T10:28:46.331Z,20.40
2023-02-11T10:31:51.065Z,19.98
2023-02-11T10:34:58.951Z,20.60
2023-02-11T10:38:01.971Z,18.87
2023-02-11T10:41:05.621Z,20.17
2023-02-11T10:44:08.810Z,15.32
2023-02-11T10:47:27.912Z,14.77
2023-02-11T10:50:37.216Z,15.93
2023-02-11T10:53:40.127Z,15.83
2023-02-11T10:56:53.732Z,13.85
2023-02-11T11:00:06.919Z,12.75
2023-02-11T11:03:22.452Z,13.13
2023-02-11T11:06:33.172Z,21.33
2023-02-11T11:09:48.578Z,19.93
2023-02-11T11:12:51.647Z,14.90
2023-02-11T11:16:33.764Z,13.98
2023-02-11T11:19:39.364Z,12.63
2023-02-11T11:22:43.480Z,8.93
2023-02-11T11:26:24.750Z,12.43
2023-02-11T11:29:35.956Z,8.70
2023-02-11T11:32:42.340Z,12.55
2023-02-11T11:35:59.883Z,10.00
2023-02-11T11:39:17.628Z,8.50
2023-02-11T11:42:32.876Z,9.60
2023-02-11T11:45:35.830Z,11.43
2023-02-11T11:48:42.555Z,8.57
2023-02-11T11:51:55.398Z,12.65
2023-02-11T11:55:16.460Z,18.30
2023-02-11T11:58:22.337Z,16.67
2023-02-11T12:01:57.827Z,12.23
2023-02-11T12:05:23.865Z,12.73
2023-02-11T12:08:48.882Z,10.80
2023-02-11T12:12:19.503Z,12.17
2023-02-11T12:15:56.390Z,8.27
2023-02-11T12:19:30.676Z,10.00
2023-02-11T12:23:12.148Z,10.13
2023-02-11T12:26:20.789Z,12.73
2023-02-11T12:29:45.923Z,9.93
2023-02-11T12:33:05.120Z,9.03
2023-02-11T12:36:47.068Z,7.95
2023-02-11T12:40:12.337Z,8.80
2023-02-11T12:43:26.158Z,11.43
2023-02-11T12:46:36.380Z,12.20
2023-02-11T12:50:07.762Z,7.87
2023-02-11T12:53:17.040Z,8.65
2023-02-11T12:56:39.149Z,10.57
2023-02-11T12:59:42.410Z,8.38
2023-02-11T13:02:51.530Z,5.83
2023-02-11T13:05:59.441Z,8.97
2023-02-11T13:09:07.098Z,7.87
2023-02-11T13:12:32.861Z,8.93
2023-02-11T13:15:36.384Z,8.75
2023-02-11T13:19:14.130Z,6.13
2023-02-11T13:22:25.566Z,8.90
2023-02-11T13:26:10.521Z,9.10
2023-02-11T13:29:21.209Z,7.72
2023-02-11T13:32:24.895Z,5.78
2023-02-11T13:35:35.397Z,10.90
2023-02-11T13:38:39.933Z,10.17
2023-02-11T13:41:45.685Z,8.57
2023-02-11T13:44:49.418Z,7.00
2023-02-11T13:47:58.649Z,8.82
2023-02-11T13:51:07.709Z,8.23
2023-02-11T13:54:39.825Z,10.03
2023-02-11T13:57:43.674Z,11.18
2023-02-11T14:00:50.202Z,9.40
2023-02-11T14:04:45.476Z,9.50
2023-02-11T14:08:29.124Z,9.97
2023-02-11T14:11:37.608Z,10.50
2023-02-11T14:15:19.261Z,11.10
2023-02-11T14:18:39.793Z,10.40
2023-02-11T14:21:44.816Z,6.87
2023-02-11T14:24:55.717Z,9.63
2023-02-11T14:28:25.244Z,8.57
2023-02-11T14:31:47.265Z,10.65
2023-02-11T14:35:15.551Z,8.38
2023-02-11T14:38:41.207Z,10.68
2023-02-11T14:41:48.385Z,10.73
2023-02-11T14:44:56.712Z,11.33
2023-02-11T14:48:18.644Z,11.12
2023-02-11T14:51:31.788Z,9.63
2023-02-11T14:54:35.829Z,15.32
2023-02-11T14:57:40.088Z,11.03
2023-02-11T15:00:59.915Z,12.77
2023-02-11T15:04:07.555Z,13.10
2023-02-11T15:07:13.752Z,12.48
2023-02-11T15:10:30.172Z,12.93
2023-02-11T15:13:35.172Z,13.10
2023-02-11T15:16:45.750Z,11.83
2023-02-11T15:19:55.337Z,12.68
2023-02-11T15:23:03.837Z,12.60
2023-02-11T15:26:15.928Z,12.15
2023-02-11T15:29:24.938Z,14.43
2023-02-11T15:32:28.918Z,15.57
2023-02-11T15:35:32.836Z,15.20
2023-02-11T15:38:37.289Z,19.10
2023-02-11T15:41:43.197Z,17.05
2023-02-11T15:44:54.324Z,14.43
2023-02-11T15:48:08.085Z,13.67
2023-02-11T15:51:34.217Z,15.00
2023-02-11T15:54:40.868Z,13.65
2023-02-11T15:58:04.284Z,13.07
2023-02-11T16:01:10.731Z,13.67
2023-02-11T16:04:21.864Z,14.20
2023-02-11T16:07:48.071Z,15.88
2023-02-11T16:11:03.794Z,20.45
2023-02-11T16:14:29.952Z,20.77
2023-02-11T16:17:35.244Z,23.03
2023-02-11T16:20:42.406Z,19.93
2023-02-11T16:23:54.084Z,20.65
2023-02-11T16:27:05.300Z,21.17
2023-02-11T16:30:33.965Z,22.73
2023-02-11T16:33:40.688Z,21.27
2023-02-11T16:36:50.106Z,21.33
2023-02-11T16:39:59.443Z,20.50
2023-02-11T16:43:04.084Z,19.35
2023-02-11T16:46:09.487Z,19.48
2023-02-11T16:49:23.200Z,17.63
2023-02-11T16:52:27.277Z,18.30
2023-02-11T16:55:32.595Z,21.33
2023-02-11T16:58:36.558Z,26.25
2023-02-11T17:01:45.886Z,19.58
2023-02-11T17:04:50.203Z,19.77
2023-02-11T17:07:54.731Z,17.17
2023-02-11T17:11:00.311Z,16.83
2023-02-11T17:14:06.256Z,16.48
2023-02-11T17:17:11.469Z,20.35
2023-02-11T17:20:16.679Z,17.53
2023-02-11T17:23:20.544Z,21.07
2023-02-11T17:26:28.959Z,17.67
2023-02-11T17:29:40.472Z,19.62
2023-02-11T17:33:00.995Z,36.63
2023-02-11T17:36:17.246Z,35.90
2023-02-11T17:39:26.128Z,25.63
2023-02-11T17:42:32.448Z,20.58
2023-02-11T17:45:45.581Z,19.15
2023-02-11T17:48:53.328Z,20.23
2023-02-11T17:52:00.315Z,14.13
2023-02-11T17:55:06.040Z,17.20
2023-02-11T17:58:13.522Z,21.58
2023-02-11T18:01:18.166Z,21.08
2023-02-11T18:04:22.830Z,22.05
2023-02-11T18:07:27.150Z,19.60
2023-02-11T18:10:31.985Z,22.20
2023-02-11T18:13:35.518Z,20.35
2023-02-11T18:16:45.048Z,19.10
2023-02-11T18:19:49.434Z,19.65
2023-02-11T18:22:54.819Z,18.70
2023-02-11T18:25:59.367Z,19.60
2023-02-11T18:29:08.026Z,19.15
2023-02-11T18:32:16.089Z,22.02
2023-02-11T18:35:24.196Z,22.05
2023-02-11T18:38:29.561Z,18.53
2023-02-11T18:41:36.837Z,19.17
2023-02-11T18:44:40.982Z,19.08
2023-02-11T18:47:56.137Z,17.65
2023-02-11T18:51:00.164Z,17.00
2023-02-11T18:54:09.848Z,17.07
2023-02-11T18:57:13.941Z,16.50
2023-02-11T19:00:18.989Z,16.40
2023-02-11T19:03:23.263Z,17.40
2023-02-11T19:06:30.402Z,17.00
2023-02-11T19:09:34.377Z,16.73
2023-02-11T19:12:51.535Z,18.25
2023-02-11T19:15:55.904Z,21.05
2023-02-11T19:19:00.438Z,21.02
2023-02-11T19:22:10.239Z,24.30
2023-02-11T19:25:15.435Z,22.63
2023-02-11T19:28:22.977Z,22.23
2023-02-11T19:31:28.365Z,22.70
2023-02-11T19:34:34.610Z,21.83
2023-02-11T19:37:39.548Z,22.48
2023-02-11T19:40:43.896Z,21.90
2023-02-11T19:43:53.118Z,22.13
2023-02-11T19:46:57.083Z,20.17
2023-02-11T19:50:02.594Z,17.50
2023-02-11T19:53:07.210Z,19.25
2023-02-11T19:56:14.127Z,19.33
2023-02-11T19:59:17.909Z,17.48
2023-02-11T20:02:22.031Z,17.55
2023-02-11T20:05:27.954Z,17.73
2023-02-11T20:08:34.715Z,16.90
2023-02-11T20:11:42.541Z,16.70
2023-02-11T20:14:48.593Z,17.90
2023-02-11T20:17:57.032Z,17.65
2023-02-11T20:21:03.810Z,16.50
2023-02-11T20:24:08.999Z,17.60
2023-02-11T20:27:13.253Z,15.50
2023-02-11T20:30:19.036Z,19.70
2023-02-11T20:33:23.660Z,18.25
2023-02-11T20:36:32.324Z,19.60
2023-02-11T20:39:42.558Z,18.87
2023-02-11T20:42:50.112Z,18.63
2023-02-11T20:45:56.864Z,19.92
2023-02-11T20:49:04.221Z,19.80
2023-02-11T20:52:08.849Z,18.00
2023-02-11T20:55:23.183Z,16.48
2023-02-11T20:58:26.838Z,12.53
2023-02-11T21:01:36.947Z,13.02
2023-02-11T21:04:42.572Z,13.02
2023-02-11T21:07:47.030Z,11.50
2023-02-11T21:10:53.244Z,10.95
2023-02-11T21:13:58.097Z,10.13
2023-02-11T21:17:02.554Z,9.93
2023-02-11T21:20:09.190Z,9.77
2023-02-11T21:23:12.752Z,9.05
2023-02-11T21:26:18.883Z,7.72
2023-02-11T21:29:22.700Z,7.53
2023-02-11T21:32:27.176Z,9.82
2023-02-11T21:35:36.557Z,9.52
2023-02-11T21:38:40.166Z,8.40
2023-02-11T21:41:43.025Z,6.95
2023-02-11T21:44:47.331Z,9.20
2023-02-11T21:47:50.761Z,9.32
2023-02-11T21:50:55.181Z,7.15
2023-02-11T21:54:01.904Z,10.23
2023-02-11T21:57:05.803Z,8.45
2023-02-11T22:00:11.642Z,7.67
2023-02-11T22:03:15.236Z,8.45
2023-02-11T22:06:27.167Z,9.30
2023-02-11T22:09:30.465Z,9.02
2023-02-11T22:12:33.427Z,8.18
2023-02-11T22:15:36.559Z,7.37
2023-02-11T22:18:39.831Z,7.93
2023-02-11T22:21:43.889Z,9.15
2023-02-11T22:24:46.942Z,8.80
2023-02-11T22:27:50.196Z,9.27
2023-02-11T22:30:55.148Z,6.13
2023-02-11T22:33:58.958Z,8.20
2023-02-11T22:37:02.621Z,8.43
2023-02-11T22:40:06.428Z,4.05
2023-02-11T22:43:09.782Z,7.78
2023-02-11T22:46:16.640Z,7.63
2023-02-11T22:49:21.539Z,6.53
2023-02-11T22:52:24.641Z,7.53
2023-02-11T22:55:27.453Z,9.30
2023-02-11T22:58:30.702Z,9.32
2023-02-11T23:01:33.980Z,9.43
2023-02-11T23:04:37.142Z,6.65
2023-02-11T23:07:39.812Z,8.25
2023-02-11T23:10:42.922Z,8.93
2023-02-11T23:13:46.988Z,10.15
2023-02-11T23:16:50.268Z,7.80
2023-02-11T23:19:52.973Z,8.30
2023-02-11T23:22:56.036Z,8.05
2023-02-11T23:25:58.695Z,9.48
2023-02-11T23:29:01.689Z,7.37
2023-02-11T23:32:04.584Z,8.90
2023-02-11T23:35:07.935Z,8.57
2023-02-11T23:38:10.644Z,6.00
2023-02-11T23:41:14.940Z,8.15
2023-02-11T23:44:17.613Z,9.25
2023-02-11T23:47:20.653Z,10.10
2023-02-11T23:50:23.346Z,9.43
2023-02-11T23:53:26.350Z,10.20
2023-02-11T23:56:29.138Z,9.43
2023-02-11T23:59:32.219Z,10.27
